Tiempo atmosférico en la estación meteorológica de Vigo, Pontevedra (120 m.)



Fecha
DESCASC
Temp. máxima en grados centígrados (hora)
DESCASC
Temp. mínima en grados centígrados (hora)
DESCASC
Temp. media en grados centígrados
DESCASC
Racha de viento máxima en m/sg (hora)
DESCASC
Velocidad máxima media en intervalos de 10 minutos(hora)
DESCASC
Precipitaciones diarias en mm
DESCASC
Precipitaciones de 00:00 a 06:00 en mm
DESCASC
Precipitaciones de 06:00 a 12:00 en mm
DESCASC
Precipitaciones de 12:00 a 18:00 en mm
DESCASC
Precipitaciones de 18:00 a 24:00 en mm
DESCASC
13-01-2021 11.2 (14:40) 2.8 (07:40) 7 3.61 (15:40) 1.67 (15:30) 0 0 0 0 0
12-01-2021 11.7 (14:50) 3 (08:20) 7.3 3.89 (15:50) 1.94 (16:20) 0 0 0 0 0
11-01-2021 11.2 (15:30) 3.1 (07:20) 7.1 5 (00:10) 2.22 (00:10) 0 0 0 0 0
10-01-2021 11.3 (14:10) 5.8 (23:59) 8.6 12.5 (14:20) 5.83 (14:40) 0 0 0 0 0
09-01-2021 9.8 (15:00) 1.9 (00:00) 5.9 16.11 (18:00) 7.5 (16:00) 0 0 0 0 0
08-01-2021 10.2 (15:10) 0.3 (00:00) 5.2 13.33 (17:00) 5.28 (17:00) 0 0 0 0 0
07-01-2021 10.2 (15:30) 1.2 (00:00) 5.7 5.28 (11:50) 2.5 (11:50) 0 0 0 0 0
06-01-2021 9.5 (15:30) 1.7 (00:00) 5.6 4.17 (19:20) 2.22 (04:40) 0 0 0 0 0
05-01-2021 9.7 (14:40) 1.4 (00:00) 5.5 3.89 (21:40) 1.67 (13:50) 0 0 0 0 0
04-01-2021 8.8 (15:00) 3 (00:00) 5.9 4.17 (21:10) 1.67 (18:00) 0.2 0 0.2 0 0
03-01-2021 10.4 (14:30) 3.1 (00:00) 6.7 5.83 (16:00) 1.67 (14:50) 0.6 0 0 0.6 0
02-01-2021 10 (15:20) 2.6 (00:00) 6.3 3.89 (13:10) 1.39 (12:50) 0.2 0.2 0 0 0
01-01-2021 8.5 (15:20) 3.8 (00:00) 6.1 11.39 (17:10) 3.89 (17:10) 6.6 1 2.2 3.4 0
31-12-2020 10.9 (07:30) 5.7 (00:00) 8.3 9.44 (04:50) 3.61 (07:10) 12.4 2.4 7 3 0
30-12-2020 9.7 (23:59) 3.9 (00:00) 6.8 5.56 (23:59) 2.22 (23:40) 4.4 0 0 3.2 1.2
29-12-2020 10.3 (13:50) 4.9 (00:00) 7.6 10.83 (18:00) 5 (18:00) 6.6 3.8 1.6 0.8 0.4
28-12-2020 11.2 (00:20) 7.3 (00:00) 9.3 15 (02:00) 5.83 (01:40) 10.4 1.2 3.8 4 1.4
27-12-2020 11.9 (15:40) 3.9 (00:00) 7.9 14.44 (20:30) 5.56 (20:30) 6 0 0 0.2 5.8
26-12-2020 10.8 (14:40) 4.2 (00:00) 7.5 5 (07:10) 2.5 (08:40) 0 0 0 0 0
25-12-2020 13.2 (14:40) 6 (00:00) 9.6 9.44 (15:40) 4.44 (15:30) 0 0 0 0 0
24-12-2020 12.1 (14:30) 5.1 (00:00) 8.6 7.5 (15:00) 3.89 (18:20) 0 0 0 0 0
23-12-2020 13.3 (00:00) 6.6 (23:59) 10 8.61 (00:50) 5 (00:10) 30.2 29.4 0.8 0 0
21-12-2020 15.8 (14:30) 13.6 (00:00) 14.7 8.06 (23:40) 4.17 (23:59) 8.6 4.2 4 0.4 0
20-12-2020 14.5 (14:00) 10.5 (00:00) 12.5 7.22 (20:10) 3.61 (20:10) 11.2 0 0.2 2.2 8.8
19-12-2020 15.3 (12:50) 10.7 (00:00) 13 6.67 (15:20) 2.78 (15:00) 2 2 0 0 0
18-12-2020 13.3 (12:50) 11.4 (00:00) 12.3 15.83 (20:40) 7.78 (22:00) 13.2 0 0 1.6 11.6
17-12-2020 13.7 (12:10) 8.2 (00:00) 10.9 6.39 (23:00) 3.06 (14:00) 0 0 0 0 0

Gráficas

Temp. máximas Temp. mínimas Temp. medias Precipitaciones Rachas de viento máximas Velocidades máximas media en intervalos de 10 minutos

Datos horarios

Fecha y hora oficial Temperatura (ºC) Velocidad del viento (km/h) Dirección del viento Racha (km/h) Dirección de racha Precipitación (mm) Presión (hPa) Tendencia (hPa) Humedad (%)
2021-01-15 23:00:00 6.5 4 Este 11 Este 0 -- -- 90
2021-01-15 22:00:00 6.8 4 Este 9 Sudeste 0 -- -- 90
2021-01-15 21:00:00 7.7 3 Sudeste 8 Sudeste 0 -- -- 92
2021-01-15 20:00:00 8.2 3 Sur 6 Sur 0 -- -- 92
2021-01-15 19:00:00 9.7 2 Sudoeste 6 Sudoeste 0 -- -- 88
2021-01-15 18:00:00 11.4 3 Sudoeste 10 Oeste 0 -- -- 78
2021-01-15 17:00:00 12.3 6 Sudoeste 13 Sudoeste 0 -- -- 76
2021-01-15 16:00:00 13.5 6 Oeste 13 Sudoeste 0 -- -- 70
2021-01-15 15:00:00 13.7 5 Oeste 11 Sudoeste 0 -- -- 64
2021-01-15 14:00:00 13.6 3 Norte 8 Nordeste 0 -- -- 64
2021-01-15 13:00:00 13.1 4 Este 14 Este 0 -- -- 68
2021-01-15 12:00:00 10.8 4 Nordeste 9 Nordeste 0 -- -- 81
2021-01-15 11:00:00 8.4 3 Nordeste 9 Sudeste 0 -- -- 90
2021-01-15 10:00:00 7 3 Nordeste 9 Nordeste 0 -- -- 93
2021-01-15 09:00:00 7.1 3 Este 8 Nordeste 0 -- -- 92
2021-01-15 08:00:00 7.5 2 Nordeste 7 Este 0 -- -- 92
2021-01-15 07:00:00 7.7 3 Nordeste 6 Este 0 -- -- 93
2021-01-15 06:00:00 7.9 3 Este 13 Este 0 -- -- 91
2021-01-15 05:00:00 8.1 4 Este 15 Este 0 -- -- 91
2021-01-15 04:00:00 9 3 Este 10 Este 0 -- -- 91
2021-01-15 03:00:00 9.3 4 Este 9 Este 0 -- -- 92
2021-01-15 02:00:00 8.9 0 Calma 8 Este 0 -- -- 93
2021-01-15 01:00:00 8.7 2 Nordeste 5 Nordeste 0 -- -- 95
2021-01-15 00:00:00 8.7 0 Calma 7 Nordeste 0 -- -- 94
2021-01-14 23:00:00 9.6 3 Nordeste 6 Nordeste 0 -- -- 92
2021-01-14 22:00:00 10.1 2 Sudeste 6 Sur 0 -- -- 90
2021-01-14 21:00:00 10.4 0 Calma 2 Sur 0 -- -- 90
2021-01-14 20:00:00 10.5 0 Calma 3 Este 0 -- -- 90
2021-01-14 19:00:00 11.1 0 Calma 8 Norte 0 -- -- 86
2021-01-14 18:00:00 11.5 3 Norte 7 Noroeste 0 -- -- 82
2021-01-14 17:00:00 11.8 3 Sudoeste 7 Oeste 0 -- -- 80
2021-01-14 16:00:00 12.3 2 Nordeste 8 Norte 0 -- -- 77
2021-01-14 15:00:00 12.2 3 Nordeste 8 Nordeste 0 -- -- 73
2021-01-14 14:00:00 11.6 2 Sudeste 10 Sudeste 0 -- -- 70
2021-01-14 13:00:00 10.7 6 Sudeste 19 Este 0 -- -- 71
2021-01-14 12:00:00 9.5 7 Este 19 Este 0 -- -- 74
2021-01-14 11:00:00 8.2 6 Este 15 Este 0 -- -- 77
2021-01-14 10:00:00 6.6 3 Este 14 Este 0 -- -- 82
2021-01-14 09:00:00 6.1 5 Nordeste 14 Este 0 -- -- 82
2021-01-14 08:00:00 5.9 7 Este 18 Este 0 -- -- 84
2021-01-14 07:00:00 6 4 Este 12 Este 0 -- -- 84
2021-01-14 06:00:00 6.3 4 Este 14 Este 0 -- -- 84
2021-01-14 05:00:00 6.2 5 Nordeste 16 Nordeste 0 -- -- 83
2021-01-14 04:00:00 5.9 5 Nordeste 15 Nordeste 0 -- -- 87
2021-01-14 03:00:00 5.6 5 Nordeste 11 Este 0 -- -- 91
2021-01-14 02:00:00 4.9 3 Nordeste 7 Nordeste 0 -- -- 97
2021-01-14 01:00:00 4.6 2 Nordeste 4 Norte 0 -- -- 96
2021-01-14 00:00:00 5 0 Calma 3 Nordeste 0 -- -- 95
2021-01-13 23:00:00 5.5 2 Sudeste 5 Sudeste 0 -- -- 94
2021-01-13 22:00:00 6.2 0 Calma 2 Sur 0 -- -- 92
2021-01-13 21:00:00 6.9 2 Sudeste 5 Sudeste 0 -- -- 88
2021-01-13 20:00:00 7.8 2 Noroeste 6 Norte 0 -- -- 86
2021-01-13 19:00:00 8 0 Calma 8 Oeste 0 -- -- 84
2021-01-13 18:00:00 8.9 3 Norte 11 Noroeste 0 -- -- 78
2021-01-13 17:00:00 9.9 3 Norte 11 Oeste 0 -- -- 71
2021-01-13 16:00:00 10.8 4 Sudoeste 13 Oeste 0 -- -- 65
2021-01-13 15:00:00 11.1 5 Oeste 12 Oeste 0 -- -- 63
2021-01-13 14:00:00 10.3 4 Oeste 8 Noroeste 0 -- -- 71
2021-01-13 13:00:00 9.8 3 Sudoeste 8 Oeste 0 -- -- 69
2021-01-13 12:00:00 7.7 2 Sudoeste 6 Nordeste 0 -- -- 79
2021-01-13 11:00:00 5.2 3 Nordeste 10 Este 0 -- -- 84
2021-01-13 10:00:00 3.5 3 Nordeste 8 Este 0 -- -- 91
2021-01-13 09:00:00 3.2 2 Este 8 Este 0 -- -- 92
2021-01-13 08:00:00 2.8 2 Nordeste 5 Este 0 -- -- 93
2021-01-13 07:00:00 3.3 2 Sudeste 6 Sudeste 0 -- -- 92
2021-01-13 06:00:00 3.5 2 Nordeste 4 Nordeste 0 -- -- 90
2021-01-13 05:00:00 3.6 0 Calma 4 Este 0 -- -- 90
2021-01-13 04:00:00 3.6 3 Sudeste 6 Sudeste 0 -- -- 89
2021-01-13 03:00:00 3.7 3 Sudeste 6 Sudeste 0 -- -- 92
2021-01-13 02:00:00 4 0 Calma 6 Nordeste 0 -- -- 92
2021-01-13 01:00:00 4.5 2 Nordeste 5 Este 0 -- -- 92
2021-01-13 00:00:00 4.6 0 Calma 5 Nordeste 0 -- -- 92
2021-01-12 23:00:00 4.6 0 Calma 4 Sudeste 0 -- -- 93
2021-01-12 22:00:00 5.3 3 Sudeste 6 Sudeste 0 -- -- 91
2021-01-12 21:00:00 5.6 4 Sudeste 6 Sudeste 0 -- -- 89
2021-01-12 20:00:00 6.3 3 Sudeste 8 Sudeste 0 -- -- 87
2021-01-12 19:00:00 7.3 0 Calma 9 Sudoeste 0 -- -- 83
2021-01-12 18:00:00 8.8 4 Sudoeste 11 Oeste 0 -- -- 76
2021-01-12 17:00:00 9.7 4 Sudoeste 13 Oeste 0 -- -- 72
2021-01-12 16:00:00 10.6 5 Sudoeste 14 Sudoeste 0 -- -- 70
2021-01-12 15:00:00 11.7 4 Oeste 12 Noroeste 0 -- -- 61
2021-01-12 14:00:00 11.1 4 Noroeste 9 Noroeste 0 -- -- 62
2021-01-12 13:00:00 10.8 0 Calma 5 Norte 0 -- -- 62
2021-01-12 12:00:00 9.2 3 Este 10 Este 0 -- -- 59
2021-01-12 11:00:00 6.4 4 Este 9 Este 0 -- -- 68
2021-01-12 10:00:00 3.8 3 Este 12 Este 0 -- -- 76
2021-01-12 09:00:00 3.2 3 Nordeste 10 Este 0 -- -- 81
2021-01-12 08:00:00 3.5 3 Nordeste 10 Este 0 -- -- 79
2021-01-12 07:00:00 3.6 4 Este 9 Este 0 -- -- 75
2021-01-12 06:00:00 3.9 3 Este 10 Este 0 -- -- 74
2021-01-12 05:00:00 4.1 3 Este 8 Este 0 -- -- 74
2021-01-12 04:00:00 4.3 3 Este 9 Este 0 -- -- 74
2021-01-12 03:00:00 4.4 4 Este 10 Sudeste 0 -- -- 74
2021-01-12 02:00:00 4.6 2 Este 5 Este 0 -- -- 73
2021-01-12 01:00:00 4.4 2 Este 7 Sudeste 0 -- -- 76
2021-01-12 00:00:00 5.1 2 Este 9 Este 0 -- -- 75
2021-01-11 23:00:00 5.3 0 Calma 6 Sudeste 0 -- -- 72
2021-01-11 22:00:00 6.3 3 Este 10 Este 0 -- -- 67
2021-01-11 21:00:00 6.1 3 Nordeste 8 Nordeste 0 -- -- 71
2021-01-11 20:00:00 6.4 0 Calma 5 Sudeste 0 -- -- 72
2021-01-11 19:00:00 7.4 3 Sudeste 6 Sudeste 0 -- -- 68
2021-01-11 18:00:00 9.3 0 Calma 9 Oeste 0 -- -- 57
2021-01-11 17:00:00 10.2 5 Sudoeste 10 Sudoeste 0 -- -- 56
2021-01-11 16:00:00 10.9 3 Sudoeste 13 Oeste 0 -- -- 51
2021-01-11 15:00:00 11.1 4 Oeste 10 Noroeste 0 -- -- 49
2021-01-11 14:00:00 10.5 6 Oeste 11 Oeste 0 -- -- 51
2021-01-11 13:00:00 10.4 3 Oeste 8 Sudoeste 0 -- -- 47
2021-01-11 12:00:00 9 3 Sur 9 Sur 0 -- -- 51
2021-01-11 11:00:00 6.5 0 Calma 14 Norte 0 -- -- 60
2021-01-11 10:00:00 5.2 7 Nordeste 15 Nordeste 0 -- -- 64
2021-01-11 09:00:00 4.4 6 Nordeste 12 Nordeste 0 -- -- 68
2021-01-11 08:00:00 3.1 2 Sudeste 8 Nordeste 0 -- -- 71
2021-01-11 07:00:00 3.5 3 Este 12 Nordeste 0 -- -- 71
2021-01-11 06:00:00 4.5 6 Nordeste 14 Nordeste 0 -- -- 68
2021-01-11 05:00:00 4.6 5 Nordeste 13 Nordeste 0 -- -- 66
2021-01-11 04:00:00 4.2 3 Este 10 Este 0 -- -- 64
2021-01-11 03:00:00 4.9 5 Este 13 Nordeste 0 -- -- 61
2021-01-11 02:00:00 5.4 5 Nordeste 15 Este 0 -- -- 60
2021-01-11 01:00:00 5.5 6 Nordeste 18 Nordeste 0 -- -- 61
2021-01-11 00:00:00 5.8 8 Nordeste 27 Nordeste 0 -- -- 62
2021-01-10 23:00:00 6 8 Nordeste 26 Nordeste 0 -- -- 58
2021-01-10 22:00:00 6.5 12 Nordeste 30 Nordeste 0 -- -- 57
2021-01-10 21:00:00 6.5 7 Nordeste 23 Este 0 -- -- 60
2021-01-10 20:00:00 6.8 4 Nordeste 23 Norte 0 -- -- 61
2021-01-10 19:00:00 7.9 9 Nordeste 27 Nordeste 0 -- -- 58
2021-01-10 18:00:00 8.9 12 Nordeste 37 Nordeste 0 -- -- 55
2021-01-10 17:00:00 9.8 19 Nordeste 43 Norte 0 -- -- 49
2021-01-10 16:00:00 10.4 15 Nordeste 40 Nordeste 0 -- -- 52
2021-01-10 15:00:00 10.9 18 Nordeste 45 Nordeste 0 -- -- 46
2021-01-10 14:00:00 11.2 11 Nordeste 38 Nordeste 0 -- -- 49
2021-01-10 13:00:00 10.2 14 Nordeste 44 Nordeste 0 -- -- 49
2021-01-10 12:00:00 9.5 12 Nordeste 32 Nordeste 0 -- -- 58
2021-01-10 11:00:00 7.2 15 Nordeste 38 Nordeste 0 -- -- 66
2021-01-10 10:00:00 6.2 8 Nordeste 24 Nordeste 0 -- -- 69
2021-01-10 09:00:00 6.3 8 Nordeste 26 Nordeste 0 -- -- 68
2021-01-10 08:00:00 6.4 6 Nordeste 27 Nordeste 0 -- -- 68
2021-01-10 07:00:00 6.5 7 Nordeste 33 Norte 0 -- -- 69
2021-01-10 06:00:00 6.9 11 Nordeste 36 Nordeste 0 -- -- 69
2021-01-10 05:00:00 6.9 11 Nordeste 32 Nordeste 0 -- -- 71
2021-01-10 04:00:00 7.1 13 Nordeste 38 Nordeste 0 -- -- 69
2021-01-10 03:00:00 7 14 Nordeste 36 Nordeste 0 -- -- 69
2021-01-10 02:00:00 7 15 Nordeste 41 Norte 0 -- -- 68
2021-01-10 01:00:00 6.5 13 Nordeste 32 Nordeste 0 -- -- 71
2021-01-10 00:00:00 6 14 Nordeste 40 Nordeste 0 -- -- 72
2021-01-09 23:00:00 5.9 12 Nordeste 36 Nordeste 0 -- -- 73
2021-01-09 22:00:00 5.8 12 Nordeste 39 Nordeste 0 -- -- 74
2021-01-09 21:00:00 5.9 13 Nordeste 39 Nordeste 0 -- -- 73
2021-01-09 20:00:00 6.1 14 Nordeste 38 Norte 0 -- -- 69
2021-01-09 19:00:00 6.5 17 Nordeste 56 Norte 0 -- -- 65
2021-01-09 18:00:00 7.1 22 Nordeste 58 Nordeste 0 -- -- 60
2021-01-09 17:00:00 7.9 18 Nordeste 55 Nordeste 0 -- -- 59
2021-01-09 16:00:00 8.5 27 Nordeste 54 Nordeste 0 -- -- 55
2021-01-09 15:00:00 9.8 14 Nordeste 54 Nordeste 0 -- -- 52
2021-01-09 14:00:00 9.2 15 Nordeste 44 Nordeste 0 -- -- 52
2021-01-09 13:00:00 8.3 13 Nordeste 33 Nordeste 0 -- -- 57
2021-01-09 12:00:00 6.9 12 Nordeste 40 Nordeste 0 -- -- 60
2021-01-09 11:00:00 5.3 12 Nordeste 33 Nordeste 0 -- -- 65
2021-01-09 10:00:00 3.3 10 Nordeste 22 Nordeste 0 -- -- 68
2021-01-09 09:00:00 2.8 7 Nordeste 21 Nordeste 0 -- -- 68
2021-01-09 08:00:00 2.6 6 Nordeste 19 Nordeste 0 -- -- 70
2021-01-09 07:00:00 2.2 6 Nordeste 18 Nordeste 0 -- -- 74
2021-01-09 06:00:00 2.2 5 Nordeste 16 Nordeste 0 -- -- 72
2021-01-09 05:00:00 2.2 0 Calma 13 Nordeste 0 -- -- 72
2021-01-09 04:00:00 2 3 Nordeste 11 Nordeste 0 -- -- 73
2021-01-09 03:00:00 2.6 5 Nordeste 14 Nordeste 0 -- -- 67
2021-01-09 02:00:00 2.5 4 Nordeste 10 Nordeste 0 -- -- 72
2021-01-09 01:00:00 2.9 3 Nordeste 12 Nordeste 0 -- -- 73
2021-01-09 00:00:00 3.8 3 Nordeste 18 Nordeste 0 -- -- 70
2021-01-08 23:00:00 4.4 5 Este 18 Este 0 -- -- 66
2021-01-08 22:00:00 4.7 4 Este 32 Nordeste 0 -- -- 69
2021-01-08 21:00:00 5.3 9 Nordeste 29 Nordeste 0 -- -- 67
2021-01-08 20:00:00 6.1 6 Nordeste 33 Nordeste 0 -- -- 64
2021-01-08 19:00:00 7 9 Nordeste 34 Nordeste 0 -- -- 58
2021-01-08 18:00:00 7.9 14 Nordeste 35 Nordeste 0 -- -- 52
2021-01-08 17:00:00 8.7 19 Nordeste 48 Nordeste 0 -- -- 45
2021-01-08 16:00:00 9.7 7 Nordeste 27 Nordeste 0 -- -- 46
2021-01-08 15:00:00 10 7 Nordeste 14 Nordeste 0 -- -- 50
2021-01-08 14:00:00 9 4 Este 13 Este 0 -- -- 53
2021-01-08 13:00:00 7.8 5 Sudeste 15 Este 0 -- -- 54
2021-01-08 12:00:00 6.2 6 Este 15 Nordeste 0 -- -- 60
2021-01-08 11:00:00 4 3 Nordeste 14 Nordeste 0 -- -- 67
2021-01-08 10:00:00 1.1 2 Este 8 Sudeste 0 -- -- 84
2021-01-08 09:00:00 0.5 3 Sudeste 12 Este 0 -- -- 85
2021-01-08 08:00:00 1 5 Este 18 Este 0 -- -- 85
2021-01-08 07:00:00 1 4 Este 18 Este 0 -- -- 86
2021-01-08 06:00:00 1.4 6 Este 15 Este 0 -- -- 86
2021-01-08 05:00:00 1.4 5 Este 14 Nordeste 0 -- -- 86
2021-01-08 04:00:00 1.6 4 Este 10 Sudeste 0 -- -- 85
2021-01-08 03:00:00 2.3 4 Este 13 Sudeste 0 -- -- 83
2021-01-08 02:00:00 2.5 6 Este 14 Este 0 -- -- 82
2021-01-08 01:00:00 2.8 5 Este 13 Este 0 -- -- 81
2021-01-08 00:00:00 3.1 6 Este 12 Este 0 -- -- 81
2021-01-07 23:00:00 3.3 3 Este 10 Sudeste 0 -- -- 82
2021-01-07 22:00:00 4.1 4 Este 10 Sudeste 0 -- -- 81
2021-01-07 21:00:00 4.9 2 Sudoeste 17 Nordeste 0 -- -- 77
2021-01-07 20:00:00 5.5 0 Calma 14 Nordeste 0 -- -- 75
2021-01-07 19:00:00 6.6 4 Nordeste 18 Nordeste 0 -- -- 70
2021-01-07 18:00:00 7.7 6 Nordeste 18 Nordeste 0 -- -- 67
2021-01-07 17:00:00 8.9 5 Nordeste 15 Nordeste 0 -- -- 64
2021-01-07 16:00:00 9.5 4 Nordeste 9 Nordeste 0 -- -- 60
2021-01-07 15:00:00 9.9 3 Este 11 Nordeste 0 -- -- 57
2021-01-07 14:00:00 8.5 3 Este 12 Este 0 -- -- 61
2021-01-07 13:00:00 6.6 6 Este 15 Este 0 -- -- 69
2021-01-07 12:00:00 4.9 9 Este 19 Este 0 -- -- 73
2021-01-07 11:00:00 3.2 7 Este 17 Este 0 -- -- 80
2021-01-07 10:00:00 1.6 8 Este 14 Este 0 -- -- 85
2021-01-07 09:00:00 1.2 3 Este 14 Este 0 -- -- 85
2021-01-07 08:00:00 1.6 8 Este 17 Sudeste 0 -- -- 85
2021-01-07 07:00:00 1.6 5 Este 13 Este 0 -- -- 85
2021-01-07 06:00:00 1.7 5 Este 13 Este 0 -- -- 85
2021-01-07 05:00:00 1.8 3 Este 14 Este 0 -- -- 85
2021-01-07 04:00:00 1.9 6 Este 19 Este 0 -- -- 85
2021-01-07 03:00:00 2.3 6 Nordeste 15 Este 0 -- -- 85
2021-01-07 02:00:00 2.4 8 Este 17 Este 0 -- -- 85
2021-01-07 01:00:00 2.6 6 Este 16 Este 0 -- -- 84
2021-01-07 00:00:00 2.8 5 Este 15 Este 0 -- -- 83
2021-01-06 23:00:00 2.7 6 Este 13 Este 0 -- -- 83
2021-01-06 22:00:00 3.3 5 Este 14 Este 0 -- -- 81
2021-01-06 21:00:00 3.3 6 Este 13 Este 0 -- -- 82
2021-01-06 20:00:00 3.9 5 Este 15 Este 0 -- -- 83
2021-01-06 19:00:00 5.2 3 Sudeste 8 Este 0 -- -- 82
2021-01-06 18:00:00 6.9 4 Este 10 Este 0 -- -- 76
2021-01-06 17:00:00 8.3 3 Norte 6 Norte 0 -- -- 72
2021-01-06 16:00:00 9.2 2 Nordeste 8 Sudeste 0 -- -- 68
2021-01-06 15:00:00 8.9 5 Sudeste 14 Este 0 -- -- 67
2021-01-06 14:00:00 8.4 4 Este 15 Este 0 -- -- 67
2021-01-06 13:00:00 7.2 4 Nordeste 10 Este 0 -- -- 70
2021-01-06 12:00:00 5.3 5 Nordeste 14 Este 0 -- -- 77
2021-01-06 11:00:00 3.8 4 Nordeste 12 Este 0 -- -- 81
2021-01-06 10:00:00 2.3 6 Este 12 Nordeste 0 -- -- 86
2021-01-06 09:00:00 1.9 4 Nordeste 13 Este 0 -- -- 88
2021-01-06 08:00:00 1.7 5 Nordeste 10 Este 0 -- -- 89
2021-01-06 07:00:00 1.9 4 Nordeste 14 Este 0 -- -- 89
2021-01-06 06:00:00 1.9 4 Nordeste 14 Este 0 -- -- 90
2021-01-06 05:00:00 2.1 6 Este 15 Este 0 -- -- 89
2021-01-06 04:00:00 2 5 Este 13 Nordeste 0 -- -- 89
2021-01-06 03:00:00 2.2 3 Este 14 Este 0 -- -- 88
2021-01-06 02:00:00 3.1 5 Este 12 Este 0 -- -- 85
2021-01-06 01:00:00 3.1 3 Sudeste 9 Este 0 -- -- 87
2021-01-06 00:00:00 3.6 4 Este 10 Sudeste 0 -- -- 86
2021-01-05 23:00:00 4 4 Este 10 Este 0 -- -- 83
2021-01-05 22:00:00 4.6 3 Nordeste 14 Nordeste 0 -- -- 88
2021-01-05 21:00:00 5.4 5 Nordeste 11 Norte 0 -- -- 81
2021-01-05 20:00:00 5.3 3 Nordeste 5 Nordeste 0 -- -- 81
2021-01-05 19:00:00 6.4 4 Este 8 Nordeste 0 -- -- 78
2021-01-05 18:00:00 7.5 4 Nordeste 10 Norte 0 -- -- 73
2021-01-05 17:00:00 8.5 2 Este 13 Norte 0 -- -- 71
2021-01-05 16:00:00 9.3 4 Nordeste 13 Nordeste 0 -- -- 68
2021-01-05 15:00:00 9.7 6 Nordeste 13 Nordeste 0 -- -- 66
2021-01-05 14:00:00 8.8 6 Nordeste 12 Nordeste 0 -- -- 70
2021-01-05 13:00:00 7.9 3 Nordeste 7 Norte 0 -- -- 68
2021-01-05 12:00:00 6.3 3 Nordeste 10 Este 0 -- -- 74
2021-01-05 11:00:00 4.2 4 Este 11 Este 0 -- -- 76
2021-01-05 10:00:00 2 5 Nordeste 8 Nordeste 0 -- -- 89
2021-01-05 09:00:00 1.7 4 Este 9 Este 0 -- -- 87
2021-01-05 08:00:00 1.6 2 Este 7 Este 0 -- -- 88
2021-01-05 07:00:00 1.7 2 Este 7 Nordeste 0 -- -- 90
2021-01-05 06:00:00 1.9 3 Nordeste 7 Sudeste 0 -- -- 89
2021-01-05 05:00:00 1.8 2 Este 6 Este 0 -- -- 89
2021-01-05 04:00:00 2 3 Nordeste 6 Nordeste 0 -- -- 90
2021-01-05 03:00:00 2.1 2 Este 6 Este 0 -- -- 87
2021-01-05 02:00:00 2.5 2 Nordeste 7 Este 0 -- -- 87
2021-01-05 01:00:00 3.1 0 Calma 6 Este 0 -- -- 84
2021-01-05 00:00:00 3.8 4 Nordeste 8 Este 0 -- -- 82
2021-01-04 23:00:00 4.2 4 Nordeste 13 Nordeste 0 -- -- 82
2021-01-04 22:00:00 4.4 3 Este 15 Nordeste 0 -- -- 82
2021-01-04 21:00:00 4.7 5 Nordeste 11 Nordeste 0 -- -- 83
2021-01-04 20:00:00 5.4 4 Nordeste 13 Nordeste 0 -- -- 85
2021-01-04 19:00:00 6.3 0 Calma 9 Noroeste 0 -- -- 85
2021-01-04 18:00:00 7.3 6 Norte 12 Norte 0 -- -- 81
2021-01-04 17:00:00 7.6 3 Norte 11 Norte 0 -- -- 75
2021-01-04 16:00:00 8.5 3 Noroeste 9 Oeste 0 -- -- 76
2021-01-04 15:00:00 8.8 4 Norte 8 Nordeste 0 -- -- 74
2021-01-04 14:00:00 7.4 3 Nordeste 10 Norte 0 -- -- 86
2021-01-04 13:00:00 8.6 2 Este 6 Este 0 -- -- 78
2021-01-04 12:00:00 6.3 3 Este 10 Este 0 -- -- 88
2021-01-04 11:00:00 4.4 4 Este 10 Este 0 -- -- 97
2021-01-04 10:00:00 3.2 5 Este 13 Este 0 -- -- 98
2021-01-04 09:00:00 3 5 Este 12 Este 0 -- -- 98
2021-01-04 08:00:00 3.3 2 Nordeste 9 Nordeste 0 -- -- 98
2021-01-04 07:00:00 3.2 3 Este 8 Este 0.2 -- -- 98
2021-01-04 06:00:00 3 0 Calma 6 Este 0 -- -- 98
2021-01-04 05:00:00 3.1 3 Este 8 Este 0 -- -- 99
2021-01-04 04:00:00 3.3 0 Calma 3 Nordeste 0 -- -- 99
2021-01-04 03:00:00 3.7 0 Calma 6 Sudeste 0 -- -- 99
2021-01-04 02:00:00 3.9 3 Sudeste 4 Sudeste 0 -- -- 98
2021-01-04 01:00:00 4.2 0 Calma 4 Sudeste 0 -- -- 98
2021-01-04 00:00:00 4.9 0 Calma 4 Sudeste 0 -- -- 98
2021-01-03 23:00:00 5.4 0 Calma 5 Sudeste 0 -- -- 98
2021-01-03 22:00:00 5.8 2 Sur 4 Sur 0 -- -- 98
2021-01-03 21:00:00 6.2 0 Calma 4 Sudeste 0 -- -- 96
2021-01-03 20:00:00 7 0 Calma 6 Sudoeste 0 -- -- 95
2021-01-03 19:00:00 7.4 2 Sudoeste 10 Sudoeste 0 -- -- 93
2021-01-03 18:00:00 7.7 2 Oeste 7 Oeste 0.2 -- -- 87
2021-01-03 17:00:00 8.4 4 Sudoeste 17 Sudoeste 0.2 -- -- 86
2021-01-03 16:00:00 9 4 Nordeste 21 Sudoeste 0.2 -- -- 80
2021-01-03 15:00:00 9.9 5 Sudoeste 14 Sudoeste 0 -- -- 79
2021-01-03 14:00:00 9.9 3 Sudoeste 10 Sudoeste 0 -- -- 75
2021-01-03 13:00:00 8.7 0 Calma 5 Oeste 0 -- -- 80
2021-01-03 12:00:00 7.1 0 Calma 5 Este 0 -- -- 86
2021-01-03 11:00:00 4.8 0 Calma 6 Sudeste 0 -- -- 96
2021-01-03 10:00:00 3.9 0 Calma 5 Oeste 0 -- -- 98
2021-01-03 09:00:00 3.3 0 Calma 6 Sudeste 0 -- -- 97
2021-01-03 08:00:00 3.7 0 Calma 5 Sur 0 -- -- 96
2021-01-03 07:00:00 4 0 Calma 5 Norte 0 -- -- 96
2021-01-03 06:00:00 3.6 0 Calma 4 Sudeste 0 -- -- 97
2021-01-03 05:00:00 3.4 3 Sudeste 7 Sudeste 0 -- -- 96
2021-01-03 04:00:00 3.4 2 Sur 3 Este 0 -- -- 97
2021-01-03 03:00:00 3.4 3 Sudeste 5 Sudeste 0 -- -- 95
2021-01-03 02:00:00 3.6 3 Nordeste 6 Sudeste 0 -- -- 95
2021-01-03 01:00:00 3.7 2 Sudeste 5 Sudeste 0 -- -- 94
2021-01-03 00:00:00 4 0 Calma 5 Sudeste 0 -- -- 92
2021-01-02 23:00:00 4.3 0 Calma 4 Este 0 -- -- 94
2021-01-02 22:00:00 4.7 0 Calma 5 Nordeste 0 -- -- 94
2021-01-02 21:00:00 5.2 0 Calma 5 Sudeste 0 -- -- 92
2021-01-02 20:00:00 5.9 3 Sudeste 8 Norte 0 -- -- 89
2021-01-02 19:00:00 7.1 3 Nordeste 11 Norte 0 -- -- 85
2021-01-02 18:00:00 7.6 4 Norte 10 Norte 0 -- -- 81
2021-01-02 17:00:00 8.7 2 Nordeste 10 Este 0 -- -- 77
2021-01-02 16:00:00 9.2 2 Nordeste 8 Este 0 -- -- 75
2021-01-02 15:00:00 9.4 3 Nordeste 10 Nordeste 0 -- -- 75
2021-01-02 14:00:00 9.7 4 Nordeste 14 Nordeste 0 -- -- 74